createdAt,value
2023-08-11T07:58:49.262Z,102103.41
2023-08-11T07:59:49.669Z,102095.89
2023-08-11T08:00:50.084Z,102095.69
2023-08-11T08:01:50.790Z,102095.08
2023-08-11T08:02:52.182Z,102095.05
2023-08-11T08:03:51.695Z,102095.55
2023-08-11T08:04:54.100Z,102095.45
2023-08-11T08:05:52.497Z,102094.98
2023-08-11T08:06:52.790Z,102095.07
2023-08-11T08:07:53.140Z,102095.30
2023-08-11T08:08:53.537Z,102094.78
2023-08-11T08:09:54.048Z,102094.65
2023-08-11T08:10:54.420Z,102094.55
2023-08-11T08:11:54.806Z,102094.20
2023-08-11T08:12:55.219Z,102094.05
2023-08-11T08:13:55.566Z,102093.80
2023-08-11T08:14:56.049Z,102094.02
2023-08-11T08:15:56.423Z,102093.58
2023-08-11T08:16:56.755Z,102093.70
2023-08-11T08:17:57.242Z,102093.55
2023-08-11T08:18:57.635Z,102093.24
2023-08-11T08:19:57.985Z,102092.59
2023-08-11T08:20:58.626Z,102091.65
2023-08-11T08:21:59.013Z,102091.36
2023-08-11T08:22:59.478Z,102090.70
2023-08-11T08:24:00.041Z,102090.05
2023-08-11T08:25:00.440Z,102089.02
2023-08-11T08:26:00.922Z,102088.61
2023-08-11T08:27:01.018Z,102087.77
2023-08-11T08:28:06.605Z,102087.23
2023-08-11T08:29:01.839Z,102086.38
2023-08-11T08:30:02.196Z,102085.55
2023-08-11T08:31:02.550Z,102084.90
2023-08-11T08:31:15.245Z,102068.67
2023-08-11T08:32:15.672Z,102070.09
2023-08-11T08:33:15.989Z,102070.14
2023-08-11T08:34:16.150Z,102069.80
2023-08-11T08:35:16.672Z,102069.46
2023-08-11T08:36:16.939Z,102069.02
2023-08-11T08:37:17.330Z,102068.78
2023-08-11T08:38:17.690Z,102068.44
2023-08-11T08:39:18.018Z,102068.63
2023-08-11T08:40:18.441Z,102068.64
2023-08-11T08:41:18.704Z,102068.60
2023-08-11T08:42:19.007Z,102068.38
2023-08-11T08:43:19.358Z,102068.20
2023-08-11T08:44:19.694Z,102067.92
2023-08-11T08:45:20.456Z,102068.19
2023-08-11T08:46:20.968Z,102068.23
2023-08-11T08:47:21.672Z,102067.80
2023-08-11T08:48:22.117Z,102067.87
2023-08-11T08:49:22.627Z,102067.06
2023-08-11T08:50:23.121Z,102066.64
2023-08-11T08:51:23.469Z,102066.17
2023-08-11T08:52:24.348Z,102066.05
2023-08-11T08:53:24.738Z,102065.55
2023-08-11T08:54:24.997Z,102065.09
2023-08-11T08:55:25.802Z,102064.97
2023-08-11T08:56:26.129Z,102064.89
2023-08-11T08:57:26.457Z,102064.45
2023-08-11T08:58:26.836Z,102064.55
2023-08-11T08:59:27.218Z,102064.26
2023-08-11T09:00:27.809Z,102063.80
2023-08-11T09:01:28.485Z,102063.55
2023-08-11T09:02:29.215Z,102063.35
2023-08-11T09:03:29.654Z,102063.34
2023-08-11T09:03:38.368Z,102056.94
2023-08-11T09:04:38.668Z,102050.27
2023-08-11T09:05:38.988Z,102050.14
2023-08-11T09:06:39.525Z,102050.45
2023-08-11T09:07:39.828Z,102050.66
2023-08-11T09:08:40.104Z,102051.17
2023-08-11T09:09:40.890Z,102051.38
2023-08-11T09:10:41.469Z,102051.64
2023-08-11T09:11:42.060Z,102052.42
2023-08-11T09:12:42.715Z,102052.66
2023-08-11T09:13:42.742Z,102052.59
2023-08-11T09:14:43.193Z,102053.07
2023-08-11T09:15:43.595Z,102052.81
2023-08-11T09:16:44.007Z,102053.26
2023-08-11T09:17:44.611Z,102053.80
2023-08-11T09:18:44.943Z,102053.97
2023-08-11T09:19:45.845Z,102053.29
2023-08-11T09:20:46.349Z,102053.09
2023-08-11T09:21:46.990Z,102053.41
2023-08-11T09:22:47.047Z,102052.66
2023-08-11T09:23:47.549Z,102051.42
2023-08-11T09:24:48.044Z,102051.17
2023-08-11T09:25:48.890Z,102051.09
2023-08-11T09:26:49.585Z,102050.34
2023-08-11T09:27:49.898Z,102050.33
2023-08-11T09:28:50.381Z,102050.01
2023-08-11T09:29:50.964Z,102050.03
2023-08-11T09:30:51.438Z,102050.23
2023-08-11T09:31:51.960Z,102050.13
2023-08-11T09:32:52.378Z,102049.58
2023-08-11T09:33:52.605Z,102049.40
2023-08-11T09:34:52.943Z,102049.16
2023-08-11T09:35:53.385Z,102048.89
2023-08-11T09:36:02.093Z,102046.91
2023-08-11T09:37:02.367Z,102046.72
2023-08-11T09:38:02.683Z,102046.55
2023-08-11T09:39:03.583Z,102046.09
2023-08-11T09:40:04.237Z,102045.60
2023-08-11T09:41:05.039Z,102045.84
2023-08-11T09:42:05.453Z,102045.51
2023-08-11T09:43:05.827Z,102045.00
2023-08-11T09:44:06.618Z,102044.39
2023-08-11T09:45:07.325Z,102044.13
2023-08-11T09:46:07.492Z,102043.45
2023-08-11T09:47:15.756Z,102043.24
2023-08-11T09:48:08.301Z,102042.59
2023-08-11T09:49:08.174Z,102042.48
2023-08-11T09:50:09.050Z,102042.11
2023-08-11T09:51:09.687Z,102041.50
2023-08-11T09:52:10.258Z,102041.23
2023-08-11T09:53:10.456Z,102040.06
2023-08-11T09:54:10.506Z,102039.69
2023-08-11T09:55:10.930Z,102038.86
2023-08-11T09:56:11.505Z,102038.31
2023-08-11T09:57:11.898Z,102037.77
2023-08-11T09:58:12.306Z,102037.03
2023-08-11T09:59:12.859Z,102036.77
2023-08-11T10:00:13.307Z,102036.26
2023-08-11T10:01:20.496Z,102035.93
2023-08-11T10:02:14.569Z,102035.50
2023-08-11T10:03:15.380Z,102035.23
2023-08-11T10:04:15.702Z,102034.03
2023-08-11T10:05:16.287Z,102033.37
2023-08-11T10:06:16.894Z,102032.51
2023-08-11T10:07:17.337Z,102031.64
2023-08-11T10:07:29.132Z,102018.91
2023-08-11T10:08:29.937Z,102019.23
2023-08-11T10:09:30.830Z,102018.92
2023-08-11T10:10:31.119Z,102018.91
2023-08-11T10:11:31.877Z,102018.32
2023-08-11T10:12:32.590Z,102017.95
2023-08-11T10:13:32.986Z,102018.42
2023-08-11T10:14:34.383Z,102018.52
2023-08-11T10:15:34.042Z,102017.36
2023-08-11T10:16:34.602Z,102017.44
2023-08-11T10:17:35.281Z,102016.77
2023-08-11T10:18:35.506Z,102016.22
2023-08-11T10:19:35.963Z,102015.73
2023-08-11T10:20:36.442Z,102015.17
2023-08-11T10:21:36.655Z,102015.00
2023-08-11T10:22:37.153Z,102014.55
2023-08-11T10:23:37.266Z,102014.03
2023-08-11T10:24:37.515Z,102013.20
2023-08-11T10:25:37.861Z,102012.87
2023-08-11T10:26:38.347Z,102011.73
2023-08-11T10:27:38.868Z,102011.43
2023-08-11T10:28:39.372Z,102010.19
2023-08-11T10:29:40.192Z,102009.81
2023-08-11T10:30:40.687Z,102008.54
2023-08-11T10:31:41.648Z,102008.09
2023-08-11T10:32:41.898Z,102007.93
2023-08-11T10:33:42.364Z,102006.80
2023-08-11T10:34:42.891Z,102006.66
2023-08-11T10:35:43.592Z,102005.40
2023-08-11T10:36:44.163Z,102004.59
2023-08-11T10:37:45.005Z,102003.44
2023-08-11T10:38:45.319Z,102002.28
2023-08-11T10:39:45.656Z,102001.12
2023-08-11T10:39:56.991Z,101990.61
2023-08-11T10:40:56.405Z,101988.16
2023-08-11T10:41:57.279Z,101987.81
2023-08-11T10:42:58.106Z,101987.22
2023-08-11T10:43:58.890Z,101987.22
2023-08-11T10:44:59.634Z,101986.77
2023-08-11T10:46:00.328Z,101986.24
2023-08-11T10:47:01.424Z,101985.76
2023-08-11T10:48:01.606Z,101985.06
2023-08-11T10:49:02.108Z,101984.52
2023-08-11T10:50:02.620Z,101984.14
2023-08-11T10:51:02.934Z,101983.09
2023-08-11T10:52:03.778Z,101982.27
2023-08-11T10:53:04.107Z,101981.44
2023-08-11T10:54:04.437Z,101980.88
2023-08-11T10:55:05.249Z,101980.13
2023-08-11T10:56:05.774Z,101979.78
2023-08-11T10:57:06.526Z,101979.05
2023-08-11T10:58:06.963Z,101978.58
2023-08-11T10:59:07.524Z,101977.95
2023-08-11T11:00:08.329Z,101977.68
2023-08-11T11:01:08.921Z,101977.44
2023-08-11T11:02:09.588Z,101976.92
2023-08-11T11:03:09.784Z,101976.40
2023-08-11T11:04:10.180Z,101976.44
2023-08-11T11:05:11.968Z,101976.37
2023-08-11T11:06:11.440Z,101975.91
2023-08-11T11:07:12.029Z,101975.64
2023-08-11T11:08:12.349Z,101975.08
2023-08-11T11:08:23.060Z,101967.44
2023-08-11T11:09:23.881Z,101964.19
2023-08-11T11:10:27.702Z,101964.30
2023-08-11T11:11:27.710Z,101964.12
2023-08-11T11:12:56.924Z,101969.85
2023-08-11T11:13:57.292Z,101964.59
2023-08-11T11:14:58.049Z,101964.59
2023-08-11T11:15:58.903Z,101964.66
2023-08-11T11:16:59.493Z,101964.66
2023-08-11T11:18:00.155Z,101964.91
2023-08-11T11:19:00.482Z,101964.70
2023-08-11T11:20:03.216Z,101964.24
2023-08-11T11:21:01.276Z,101963.69
2023-08-11T11:22:01.802Z,101963.20
2023-08-11T11:23:02.301Z,101963.30
2023-08-11T11:24:02.675Z,101963.34
2023-08-11T11:25:03.189Z,101963.23
2023-08-11T11:26:03.504Z,101962.56
2023-08-11T11:27:03.820Z,101962.05
2023-08-11T11:28:04.762Z,101961.91
2023-08-11T11:29:04.952Z,101961.87
2023-08-11T11:30:05.338Z,101962.11
2023-08-11T11:31:06.185Z,101961.73
2023-08-11T11:32:06.956Z,101961.86
2023-08-11T11:33:07.787Z,101961.76
2023-08-11T11:34:07.353Z,101961.72
2023-08-11T11:35:07.755Z,101961.72
2023-08-11T11:36:08.104Z,101962.00
2023-08-11T11:37:08.772Z,101961.93
2023-08-11T11:38:09.762Z,101961.66
2023-08-11T11:39:10.625Z,101961.20
2023-08-11T11:40:10.789Z,101960.85
2023-08-11T11:41:10.890Z,101960.89
2023-08-11T11:42:11.572Z,101961.20
2023-08-11T11:43:11.708Z,101961.72
2023-08-11T11:44:12.458Z,101961.44
2023-08-11T11:44:21.200Z,101967.30
2023-08-11T11:45:21.383Z,101955.31
2023-08-11T11:46:22.333Z,101955.31
2023-08-11T11:47:22.396Z,101955.59
2023-08-11T11:48:22.389Z,101955.83
2023-08-11T11:49:29.917Z,101955.66
2023-08-11T11:50:23.083Z,101955.45
2023-08-11T11:51:23.485Z,101955.27
2023-08-11T11:52:23.898Z,101954.98
2023-08-11T11:53:24.421Z,101955.45
2023-08-11T11:54:27.030Z,101955.62
2023-08-11T11:55:25.585Z,101955.41
2023-08-11T11:57:11.942Z,101961.64
2023-08-11T11:58:11.447Z,101953.59
2023-08-11T11:59:11.820Z,101953.56
2023-08-11T12:00:11.819Z,101953.42
2023-08-11T12:01:12.553Z,101953.35
2023-08-11T12:02:13.936Z,101953.59
2023-08-11T12:03:14.064Z,101953.46
2023-08-11T12:04:14.317Z,101953.63
2023-08-11T12:05:14.759Z,101953.42
2023-08-11T12:06:15.503Z,101953.00
2023-08-11T12:07:16.374Z,101952.23
2023-08-11T12:08:16.546Z,101952.23
2023-08-11T12:09:17.023Z,101951.39
2023-08-11T12:10:17.969Z,101950.98
2023-08-11T12:11:18.250Z,101950.23
2023-08-11T12:12:19.189Z,101949.16
2023-08-11T12:13:19.569Z,101948.17
2023-08-11T12:14:19.639Z,101947.34
2023-08-11T12:15:20.600Z,101946.78
2023-08-11T12:16:20.960Z,101945.80
2023-08-11T12:17:21.373Z,101945.09
2023-08-11T12:18:22.197Z,101944.92
2023-08-11T12:19:22.909Z,101944.25
2023-08-11T12:20:22.890Z,101943.55
2023-08-11T12:21:23.716Z,101942.56
2023-08-11T12:22:24.077Z,101941.72
2023-08-11T12:23:24.382Z,101940.50
2023-08-11T12:24:24.781Z,101939.83
2023-08-11T12:25:25.635Z,101939.30
2023-08-11T12:26:26.711Z,101938.10
2023-08-11T12:27:27.134Z,101937.70
2023-08-11T12:28:26.293Z,101936.96
2023-08-11T12:28:50.377Z,101927.00
2023-08-11T12:29:50.106Z,101919.78
2023-08-11T12:30:51.010Z,101919.50
2023-08-11T12:31:51.818Z,101919.33
2023-08-11T12:32:52.797Z,101918.84
2023-08-11T12:33:53.279Z,101918.91
2023-08-11T12:54:09.918Z,101904.46
2023-08-11T12:55:10.765Z,101897.57
2023-08-11T12:56:11.614Z,101897.53
2023-08-11T12:57:11.820Z,101897.52
2023-08-11T12:58:18.584Z,101897.23
2023-08-11T12:59:14.635Z,101897.33
2023-08-11T13:00:13.162Z,101896.76
2023-08-11T13:01:17.005Z,101896.23
2023-08-11T13:02:15.917Z,101895.76
2023-08-11T13:03:16.925Z,101895.61
2023-08-11T13:04:18.786Z,101895.31
2023-08-11T13:05:16.631Z,101894.73
2023-08-11T13:06:18.519Z,101895.01
2023-08-11T13:07:18.383Z,101894.45
2023-08-11T13:08:19.619Z,101894.31
2023-08-11T13:09:20.695Z,101893.97
2023-08-11T13:10:19.880Z,101894.08
2023-08-11T13:11:22.757Z,101893.80
2023-08-11T13:12:20.582Z,101893.73
2023-08-11T13:13:21.477Z,101893.63
2023-08-11T13:14:59.214Z,101888.80
2023-08-11T13:16:43.413Z,101891.48
2023-08-11T13:17:41.100Z,101885.42
2023-08-11T13:19:14.470Z,101884.26
2023-08-11T13:20:11.271Z,101886.22
2023-08-11T13:21:11.956Z,101886.30
2023-08-11T13:22:11.332Z,101885.59
2023-08-11T13:23:11.946Z,101884.94
2023-08-11T13:24:12.085Z,101884.37
2023-08-11T13:25:12.280Z,101883.85
2023-08-11T13:26:13.751Z,101883.02
2023-08-11T13:27:13.574Z,101881.79
2023-08-11T13:28:15.497Z,101881.40
2023-08-11T13:29:14.742Z,101880.70
2023-08-11T13:30:15.688Z,101879.18
2023-08-11T13:31:15.950Z,101878.38
2023-08-11T13:32:16.601Z,101877.33
2023-08-11T13:33:17.513Z,101877.14
2023-08-11T13:34:18.478Z,101876.34
2023-08-11T13:35:18.419Z,101876.09
2023-08-11T13:36:19.198Z,101875.46
2023-08-11T13:37:19.185Z,101875.98
2023-08-11T13:38:20.064Z,101875.80
2023-08-11T13:38:32.689Z,101884.03
2023-08-11T13:39:32.865Z,101872.38
2023-08-11T13:40:33.089Z,101872.14
2023-08-11T13:41:33.828Z,101872.42
2023-08-11T13:42:34.010Z,101872.77
2023-08-11T13:43:35.981Z,101872.56
2023-08-11T13:44:35.842Z,101872.31
2023-08-11T13:45:36.325Z,101872.31
2023-08-11T13:46:37.056Z,101872.42
2023-08-11T13:47:43.364Z,101872.48
2023-08-11T13:48:39.159Z,101872.08
2023-08-11T13:49:40.112Z,101871.61
2023-08-11T13:50:39.994Z,101870.92
2023-08-11T13:51:41.046Z,101870.96
2023-08-11T13:52:40.944Z,101870.63
2023-08-11T13:53:41.745Z,101869.81
2023-08-11T13:54:42.706Z,101869.52
2023-08-11T13:55:42.844Z,101868.70
2023-08-11T13:56:38.046Z,101854.67
2023-08-11T13:57:38.209Z,101852.21
2023-08-11T13:58:39.016Z,101851.86
2023-08-11T13:59:39.918Z,101851.98
2023-08-11T14:00:41.539Z,101851.87
2023-08-11T14:01:40.474Z,101852.27
2023-08-11T14:02:41.269Z,101852.33
2023-08-11T14:03:41.454Z,101852.23
2023-08-11T14:04:45.018Z,101852.16
2023-08-11T14:05:42.745Z,101851.81
2023-08-11T14:08:17.055Z,101843.70
2023-08-11T14:09:17.219Z,101850.83
2023-08-11T14:10:18.137Z,101850.18
2023-08-11T14:11:19.002Z,101850.30
2023-08-11T14:12:19.654Z,101850.18
2023-08-11T14:13:19.843Z,101849.77
2023-08-11T14:14:20.987Z,101849.02
2023-08-11T14:15:20.899Z,101848.73
2023-08-11T14:16:22.663Z,101848.22
2023-08-11T14:17:21.727Z,101847.84
2023-08-11T14:18:23.580Z,101847.77
2023-08-11T14:19:23.420Z,101847.64
2023-08-11T14:20:24.287Z,101847.33
2023-08-11T14:21:24.439Z,101846.42
2023-08-11T14:21:40.661Z,101842.80
2023-08-11T14:22:40.537Z,101841.50
2023-08-11T14:23:41.362Z,101841.08
2023-08-11T14:24:41.913Z,101840.84
2023-08-11T14:25:42.270Z,101840.09
2023-08-11T14:26:43.076Z,101840.20
2023-08-11T14:27:43.274Z,101839.74
2023-08-11T14:28:44.024Z,101839.28
2023-08-11T14:29:44.064Z,101839.41
2023-08-11T14:30:44.139Z,101839.47
2023-08-11T14:31:44.534Z,101839.46
2023-08-11T14:32:44.988Z,101839.52
2023-08-11T14:33:45.050Z,101840.01
2023-08-11T14:35:53.424Z,101836.27
2023-08-11T14:36:56.946Z,101834.86
2023-08-11T14:38:57.935Z,101834.28
2023-08-11T14:41:27.762Z,101833.20
2023-08-11T14:42:27.376Z,101828.30
2023-08-11T14:43:27.653Z,101827.66
2023-08-11T14:44:28.463Z,101827.67
2023-08-11T14:45:28.476Z,101827.96
2023-08-11T14:46:28.804Z,101828.08
2023-08-11T14:47:32.268Z,101828.66
2023-08-11T14:48:30.346Z,101828.55
2023-08-11T14:49:31.144Z,101828.72
2023-08-11T14:50:32.044Z,101828.78
2023-08-11T14:50:41.230Z,101830.00
2023-08-11T14:51:41.026Z,101826.73
2023-08-11T14:52:41.189Z,101826.41
2023-08-11T14:53:41.977Z,101826.13
2023-08-11T14:54:42.256Z,101825.63
2023-08-11T14:56:49.809Z,101821.36
2023-08-11T14:57:50.601Z,101815.30
2023-08-11T14:58:50.592Z,101814.92
2023-08-11T14:59:51.223Z,101814.91
2023-08-11T15:00:51.752Z,101814.59
2023-08-11T15:01:52.496Z,101814.78
2023-08-11T15:02:53.488Z,101815.56
2023-08-11T15:03:54.417Z,101815.61
2023-08-11T15:04:54.704Z,101815.91
2023-08-11T15:05:55.119Z,101816.02
2023-08-11T15:06:56.159Z,101816.84
2023-08-11T15:07:56.287Z,101817.01
2023-08-11T15:08:56.687Z,101817.27
2023-08-11T15:09:57.237Z,101816.89
2023-08-11T15:10:57.529Z,101816.55
2023-08-11T15:11:57.773Z,101816.73
2023-08-11T15:12:57.987Z,101816.14
2023-08-11T15:13:58.704Z,101815.97
2023-08-11T15:14:58.778Z,101816.45
2023-08-11T15:15:59.416Z,101816.39
2023-08-11T15:17:00.266Z,101816.91
2023-08-11T15:18:00.308Z,101817.14
2023-08-11T15:19:00.789Z,101816.50
2023-08-11T15:20:01.439Z,101817.27
2023-08-11T15:21:01.856Z,101817.59
2023-08-11T15:22:02.001Z,101817.55
2023-08-11T15:23:02.844Z,101817.24
2023-08-11T15:23:17.374Z,101825.68
2023-08-11T15:24:17.130Z,101818.46
2023-08-11T15:25:17.262Z,101818.46
2023-08-11T15:26:18.167Z,101818.67
2023-08-11T15:27:18.673Z,101819.16
2023-08-11T15:28:18.924Z,101819.11
2023-08-11T15:29:19.206Z,101819.74
2023-08-11T15:30:20.178Z,101819.26
2023-08-11T15:31:20.518Z,101818.64
2023-08-11T15:32:21.685Z,101818.48
2023-08-11T15:33:21.881Z,101817.97
2023-08-11T15:34:22.665Z,101817.07
2023-08-11T15:35:23.508Z,101816.80
2023-08-11T15:36:23.552Z,101816.83
2023-08-11T15:37:24.545Z,101815.17
2023-08-11T15:38:25.059Z,101814.47
2023-08-11T15:39:25.844Z,101813.13
2023-08-11T15:40:26.484Z,101811.91
2023-08-11T15:41:27.437Z,101810.75
2023-08-11T15:42:27.903Z,101809.68
2023-08-11T15:43:28.881Z,101807.78
2023-08-11T15:44:29.799Z,101806.14
2023-08-11T15:45:30.763Z,101804.20
2023-08-11T15:46:30.948Z,101802.99
2023-08-11T15:47:31.164Z,101800.73
2023-08-11T15:48:31.236Z,101799.02
2023-08-11T15:49:32.857Z,101797.80
2023-08-11T15:50:31.986Z,101796.65
2023-08-11T15:50:40.712Z,101777.80
2023-08-11T15:51:40.849Z,101775.36
2023-08-11T15:52:41.327Z,101774.64
2023-08-11T15:53:41.518Z,101774.64
2023-08-11T15:54:42.237Z,101774.47
2023-08-11T15:55:42.715Z,101773.55
2023-08-11T15:56:43.107Z,101774.02
2023-08-11T15:58:10.959Z,101773.02
2023-08-11T15:59:11.522Z,101775.00
2023-08-11T16:00:11.801Z,101774.55
2023-08-11T16:01:44.201Z,101786.56
2023-08-11T16:02:43.335Z,101772.13
2023-08-11T16:03:43.497Z,101772.00
2023-08-11T16:04:43.388Z,101772.19
2023-08-11T16:05:43.504Z,101772.05
2023-08-11T16:06:43.635Z,101772.66
2023-08-11T16:07:46.834Z,101773.20
2023-08-11T16:08:45.418Z,101773.15
2023-08-11T16:09:44.933Z,101773.44
2023-08-11T16:10:45.389Z,101773.21
2023-08-11T16:11:46.340Z,101773.41
2023-08-11T16:12:46.530Z,101774.11
2023-08-11T16:13:47.400Z,101774.53
2023-08-11T16:14:47.558Z,101775.16
2023-08-11T16:15:48.518Z,101775.35
2023-08-11T16:16:49.191Z,101775.80
2023-08-11T16:17:49.636Z,101776.09
2023-08-11T16:18:50.183Z,101776.15
2023-08-11T16:19:50.528Z,101776.37
2023-08-11T16:20:50.600Z,101776.05
2023-08-11T16:21:51.658Z,101776.14
2023-08-11T16:22:50.968Z,101775.95
2023-08-11T16:23:51.728Z,101775.34
2023-08-11T16:24:51.986Z,101775.48
2023-08-11T16:25:52.340Z,101774.98
2023-08-11T16:26:53.821Z,101774.98
2023-08-11T16:27:53.649Z,101774.91
2023-08-11T16:28:53.723Z,101774.08
2023-08-11T16:29:54.266Z,101773.56
2023-08-11T16:30:54.585Z,101773.33
2023-08-11T16:31:07.287Z,101774.19
2023-08-11T16:32:07.600Z,101765.34
2023-08-11T16:33:08.408Z,101765.69
2023-08-11T16:34:08.980Z,101766.55
2023-08-11T16:35:09.158Z,101766.97
2023-08-11T16:36:09.471Z,101766.68
2023-08-11T16:37:09.878Z,101767.16
2023-08-11T16:38:10.145Z,101767.61
2023-08-11T16:39:10.728Z,101768.09
2023-08-11T16:40:11.103Z,101768.44
2023-08-11T16:41:11.562Z,101768.27
2023-08-11T16:42:20.037Z,101768.22
2023-08-11T16:43:13.082Z,101768.55
2023-08-11T16:44:13.800Z,101768.79
2023-08-11T16:45:14.034Z,101768.64
2023-08-11T16:46:14.543Z,101769.05
2023-08-11T16:47:04.159Z,101773.26
2023-08-11T16:48:04.954Z,101767.53
2023-08-11T16:49:05.752Z,101767.26
2023-08-11T16:50:06.714Z,101767.23
2023-08-11T16:51:07.716Z,101767.88
2023-08-11T16:52:06.716Z,101767.61
2023-08-11T16:53:06.947Z,101768.11
2023-08-11T16:54:08.728Z,101767.70
2023-08-11T16:55:07.817Z,101766.64
2023-08-11T16:56:08.085Z,101766.77
2023-08-11T16:57:08.895Z,101767.03
2023-08-11T16:58:09.697Z,101767.36
2023-08-11T16:59:11.600Z,101767.30
2023-08-11T17:00:11.451Z,101767.47
2023-08-11T17:01:12.362Z,101768.06
2023-08-11T17:02:13.360Z,101768.47
2023-08-11T17:03:14.467Z,101767.98
2023-08-11T17:10:10.780Z,101778.70
2023-08-11T17:18:56.696Z,101773.52
2023-08-11T17:23:41.212Z,101773.11
2023-08-11T17:28:45.955Z,101772.70
2023-08-11T17:29:46.232Z,101771.63
2023-08-11T17:34:40.218Z,101764.75
2023-08-11T17:39:17.136Z,101770.97
2023-08-11T17:40:18.410Z,101774.41
2023-08-11T17:41:20.209Z,101774.31
2023-08-11T17:42:18.882Z,101774.23
2023-08-11T17:43:19.698Z,101774.17
2023-08-11T17:44:19.900Z,101774.17
2023-08-11T17:45:20.778Z,101774.48
2023-08-11T17:46:21.715Z,101774.48
2023-08-11T17:46:39.685Z,101794.48
2023-08-11T17:47:39.456Z,101780.91
2023-08-11T17:49:20.424Z,101784.41
2023-08-11T17:50:21.191Z,101777.20
2023-08-11T17:51:21.273Z,101777.17
2023-08-11T17:52:22.108Z,101777.34
2023-08-11T17:53:22.170Z,101777.73
2023-08-11T17:54:22.299Z,101777.59
2023-08-11T17:55:23.141Z,101778.11
2023-08-11T17:56:23.971Z,101778.52
2023-08-11T17:57:24.781Z,101778.55
2023-08-11T17:58:25.266Z,101778.41
2023-08-11T17:59:08.533Z,101774.80
2023-08-11T18:00:09.476Z,101770.38
2023-08-11T18:01:10.403Z,101769.96
2023-08-11T18:02:11.492Z,101770.58
2023-08-11T18:03:12.188Z,101770.78
2023-08-11T18:04:12.144Z,101771.23
2023-08-11T18:05:12.306Z,101771.67
2023-08-11T18:06:13.221Z,101771.39
2023-08-11T18:07:15.007Z,101772.07
2023-08-11T18:08:14.797Z,101772.37
2023-08-11T18:09:15.146Z,101772.58
2023-08-11T18:10:15.556Z,101772.77
2023-08-11T18:11:15.668Z,101772.69
2023-08-11T18:12:16.325Z,101772.71
2023-08-11T18:13:17.179Z,101772.63
2023-08-11T18:14:17.299Z,101772.95
2023-08-11T18:15:18.922Z,101773.08
2023-08-11T18:16:18.201Z,101773.19
2023-08-11T18:17:19.041Z,101774.05
2023-08-11T18:18:19.270Z,101774.05
2023-08-11T18:19:20.084Z,101774.52
2023-08-11T18:19:35.092Z,101783.77
2023-08-11T18:20:35.959Z,101785.23
2023-08-11T18:21:38.834Z,101784.92
2023-08-11T18:22:36.262Z,101785.34
2023-08-11T18:23:36.439Z,101785.26
2023-08-11T18:24:37.227Z,101785.11
2023-08-11T18:25:38.235Z,101784.99
2023-08-11T18:26:39.053Z,101784.84
2023-08-11T18:27:39.885Z,101784.62
2023-08-11T18:28:41.079Z,101784.36
2023-08-11T18:29:40.781Z,101784.27
2023-08-11T18:30:43.507Z,101783.93
2023-08-11T18:31:42.252Z,101783.97
2023-08-11T18:32:46.037Z,101783.73
2023-08-11T18:33:43.942Z,101783.31
2023-08-11T18:34:44.855Z,101783.11
2023-08-11T18:35:45.714Z,101782.36
2023-08-11T18:36:46.641Z,101782.22
2023-08-11T18:37:00.292Z,101782.24
2023-08-11T18:38:00.707Z,101777.33
2023-08-11T18:39:01.532Z,101777.06
2023-08-11T18:40:02.390Z,101777.68
2023-08-11T18:41:02.494Z,101777.94
2023-08-11T18:42:03.421Z,101777.84
2023-08-11T18:43:04.245Z,101777.75
2023-08-11T18:45:19.917Z,101782.23
2023-08-11T19:00:13.237Z,101796.78
2023-08-11T19:01:13.315Z,101779.98
2023-08-11T19:03:01.085Z,101780.66
2023-08-11T19:04:01.390Z,101780.75
2023-08-11T19:05:02.232Z,101780.92
2023-08-11T19:06:02.216Z,101781.61
2023-08-11T19:07:02.997Z,101782.13
2023-08-11T19:08:04.947Z,101782.37
2023-08-11T19:09:15.077Z,101782.77
2023-08-11T19:10:12.702Z,101783.46
2023-08-11T19:12:07.175Z,101783.98
2023-08-11T19:12:16.018Z,101783.56
2023-08-11T19:14:50.499Z,101785.08
2023-08-11T19:16:13.483Z,101783.36
2023-08-11T19:17:11.972Z,101784.48
2023-08-11T19:18:16.802Z,101784.41
2023-08-11T19:19:50.455Z,101784.28
2023-08-11T19:20:43.192Z,101784.07
2023-08-11T19:21:08.257Z,101784.12
2023-08-11T19:22:05.735Z,101783.72
2023-08-11T19:25:03.447Z,101782.09
2023-08-11T19:25:44.342Z,101784.04
2023-08-11T19:33:59.817Z,101777.44
2023-08-11T19:34:53.224Z,101774.98
2023-08-11T19:36:01.300Z,101774.17
2023-08-11T19:38:54.000Z,101773.72
2023-08-11T19:38:54.271Z,101773.19
2023-08-11T19:40:57.517Z,101772.67
2023-08-11T19:41:59.628Z,101772.48
2023-08-11T19:42:58.158Z,101772.55
2023-08-11T19:44:00.379Z,101771.88
2023-08-11T19:44:56.655Z,101771.59
2023-08-11T19:46:56.994Z,101770.71
2023-08-11T19:49:42.928Z,101765.27
2023-08-11T19:50:05.660Z,101755.35
2023-08-11T19:51:57.015Z,101754.52
2023-08-11T19:53:00.088Z,101754.17
2023-08-11T19:54:59.039Z,101752.05
2023-08-11T19:56:00.557Z,101751.09
2023-08-11T19:56:57.221Z,101755.28
2023-08-11T19:57:08.005Z,101750.17
2023-08-11T19:58:01.449Z,101749.03
2023-08-11T19:59:10.436Z,101748.15
2023-08-11T20:00:02.573Z,101747.09
2023-08-11T20:08:06.428Z,101723.41
2023-08-11T20:10:07.400Z,101722.78
2023-08-11T20:11:17.064Z,101721.94
2023-08-11T20:13:11.854Z,101721.48
2023-08-11T20:14:10.533Z,101721.06
2023-08-11T20:15:13.270Z,101720.25
2023-08-11T20:16:31.775Z,101720.01
2023-08-11T20:17:12.733Z,101719.49
2023-08-11T20:18:14.640Z,101719.08
2023-08-11T20:20:50.203Z,101716.92
2023-08-11T20:22:22.763Z,101705.89
2023-08-11T20:22:45.283Z,101705.73
2023-08-11T20:23:47.850Z,101705.30
2023-08-11T20:25:55.695Z,101704.18
2023-08-11T20:27:48.788Z,101703.57
2023-08-11T20:28:27.155Z,101703.64
2023-08-11T20:29:52.094Z,101698.32
2023-08-11T20:30:51.962Z,101698.32
2023-08-11T20:31:50.263Z,101697.66
2023-08-11T20:34:15.466Z,101697.31
2023-08-11T20:36:19.362Z,101695.08
2023-08-11T20:38:26.275Z,101692.91
2023-08-11T20:39:23.841Z,101687.40
2023-08-11T20:40:24.674Z,101686.59
2023-08-11T20:41:25.296Z,101686.27
2023-08-11T20:42:26.009Z,101685.98
2023-08-11T20:43:58.099Z,101688.42
2023-08-11T20:44:58.746Z,101682.38
2023-08-11T20:45:59.327Z,101682.19
2023-08-11T20:47:00.086Z,101682.45
2023-08-11T20:48:01.252Z,101682.69
2023-08-11T20:49:01.285Z,101682.78
2023-08-11T20:50:01.721Z,101682.25
2023-08-11T20:51:05.342Z,101681.71
2023-08-11T20:52:03.454Z,101680.41
2023-08-11T20:53:04.621Z,101679.62
2023-08-11T20:54:04.446Z,101678.33
2023-08-11T21:01:09.891Z,101654.99
2023-08-11T21:02:47.391Z,101653.66
2023-08-11T21:04:29.234Z,101650.14
2023-08-11T21:05:29.506Z,101637.48
2023-08-11T21:07:00.298Z,101659.52
2023-08-11T21:08:00.531Z,101636.95
2023-08-11T21:10:14.282Z,101657.10
2023-08-11T21:11:12.133Z,101636.19